Kensington, Minnesota
Current Conditions -  °F | °C
As of 1:53 AM on Tuesday 21 Oct 2014 (Local Time) from KAXN Reporting Station
Clear Clear  
Wind Chill: 36°   Ceiling: Unl
Heat Index: 41°   Visibility: 10mi
Dew Point: 38°   Wind: 7mph
Humidity: 89%   Direction: 110°ESE
Pressure: 30.11"   Gusts: NA
Location:  45.78°N, 95.7°W
Report Text: KAXN 210653Z AUTO 11006KT 10SM CLR 05/03 A3011 RMK AO2 SLP202 T00500033
Loading
Personal Weather Stations






























Interactive Weather Map New forecast layout! Learn more

10-Day Weather Forecast

Advertisements
Track Severe Weather on mobile